createdAt,value
2023-12-07T00:00:32.647Z,33.38
2023-12-07T00:03:19.839Z,33.47
2023-12-07T00:06:07.560Z,33.61
2023-12-07T00:08:54.787Z,33.92
2023-12-07T00:11:41.938Z,33.70
2023-12-07T00:14:29.106Z,33.81
2023-12-07T00:17:16.366Z,33.69
2023-12-07T00:20:05.302Z,34.18
2023-12-07T00:22:52.520Z,34.15
2023-12-07T00:25:39.655Z,34.23
2023-12-07T00:28:27.565Z,34.08
2023-12-07T00:31:14.788Z,34.15
2023-12-07T00:34:01.971Z,34.21
2023-12-07T00:36:49.085Z,34.08
2023-12-07T00:39:36.263Z,33.98
2023-12-07T00:42:23.514Z,34.00
2023-12-07T00:45:13.213Z,34.41
2023-12-07T00:48:00.653Z,34.41
2023-12-07T00:50:48.587Z,34.12
2023-12-07T00:53:35.813Z,34.03
2023-12-07T00:56:22.927Z,34.26
2023-12-07T00:59:10.058Z,34.36
2023-12-07T01:01:57.138Z,34.10
2023-12-07T01:04:45.199Z,34.25
2023-12-07T01:07:32.548Z,34.16
2023-12-07T01:10:20.239Z,34.32
2023-12-07T01:13:07.440Z,34.50
2023-12-07T01:15:54.661Z,34.27
2023-12-07T01:18:41.860Z,34.57
2023-12-07T01:21:29.546Z,34.34
2023-12-07T01:24:17.072Z,34.57
2023-12-07T01:27:04.540Z,34.70
2023-12-07T01:29:51.694Z,34.60
2023-12-07T01:32:38.839Z,34.71
2023-12-07T01:35:25.937Z,34.33
2023-12-07T01:38:13.598Z,34.59
2023-12-07T01:41:00.717Z,34.47
2023-12-07T01:43:48.554Z,34.68
2023-12-07T01:46:36.786Z,34.55
2023-12-07T01:49:24.082Z,34.49
2023-12-07T01:52:12.353Z,34.74
2023-12-07T01:55:00.033Z,34.73
2023-12-07T01:57:47.263Z,34.63
2023-12-07T02:00:35.851Z,34.75
2023-12-07T02:03:24.697Z,35.01
2023-12-07T02:06:12.123Z,34.60
2023-12-07T02:08:59.246Z,34.79
2023-12-07T02:11:46.382Z,34.83
2023-12-07T02:14:35.709Z,34.97
2023-12-07T02:17:37.330Z,35.03
2023-12-07T02:20:40.703Z,34.57
2023-12-07T02:23:41.264Z,34.80
2023-12-07T02:26:38.737Z,34.97
2023-12-07T02:29:25.875Z,34.84
2023-12-07T02:32:13.066Z,35.17
2023-12-07T02:35:01.026Z,34.86
2023-12-07T02:37:53.319Z,35.16
2023-12-07T02:40:42.942Z,34.97
2023-12-07T02:43:30.778Z,34.82
2023-12-07T02:46:18.004Z,35.26
2023-12-07T02:49:05.502Z,35.22
2023-12-07T02:51:52.664Z,34.87
2023-12-07T02:54:39.911Z,34.82
2023-12-07T02:57:27.051Z,34.96
2023-12-07T03:00:15.482Z,35.35
2023-12-07T03:03:02.694Z,35.19
2023-12-07T03:05:49.861Z,34.96
2023-12-07T03:08:37.241Z,35.33
2023-12-07T03:11:25.385Z,35.03
2023-12-07T03:14:12.518Z,34.93
2023-12-07T03:16:59.972Z,34.80
2023-12-07T03:19:47.190Z,35.24
2023-12-07T03:22:34.775Z,34.91
2023-12-07T03:25:22.653Z,35.21
2023-12-07T03:28:09.836Z,35.01
2023-12-07T03:30:56.994Z,34.96
2023-12-07T03:33:44.267Z,34.91
2023-12-07T03:36:32.638Z,35.44
2023-12-07T03:39:22.771Z,35.37
2023-12-07T03:42:48.431Z,35.11
2023-12-07T03:45:17.203Z,35.06
2023-12-07T03:48:05.246Z,34.90
2023-12-07T03:50:52.520Z,35.36
2023-12-07T03:53:39.667Z,35.07
2023-12-07T03:56:29.049Z,35.41
2023-12-07T03:59:16.326Z,35.44
2023-12-07T04:02:03.574Z,35.46
2023-12-07T04:04:50.995Z,35.08
2023-12-07T04:07:38.227Z,35.12
2023-12-07T04:10:25.483Z,35.44
2023-12-07T04:13:12.904Z,35.21
2023-12-07T04:16:00.375Z,34.91
2023-12-07T04:18:47.748Z,35.17
2023-12-07T04:21:34.986Z,35.19
2023-12-07T04:24:22.133Z,35.04
2023-12-07T04:27:09.272Z,35.62
2023-12-07T04:29:56.494Z,35.10
2023-12-07T04:32:43.778Z,35.31
2023-12-07T04:35:32.130Z,35.25
2023-12-07T04:38:19.443Z,35.59
2023-12-07T04:41:06.717Z,35.56
2023-12-07T04:43:53.839Z,35.71
2023-12-07T04:46:41.379Z,35.35
2023-12-07T04:49:28.651Z,35.41
2023-12-07T04:52:15.867Z,35.63
2023-12-07T04:55:03.612Z,35.50
2023-12-07T04:57:51.122Z,35.50
2023-12-07T05:00:38.551Z,35.51
2023-12-07T05:03:25.696Z,35.61
2023-12-07T05:06:13.117Z,35.21
2023-12-07T05:09:00.248Z,34.94
2023-12-07T05:11:47.403Z,35.28
2023-12-07T05:14:35.994Z,35.10
2023-12-07T05:17:23.127Z,34.82
2023-12-07T05:20:10.750Z,34.92
2023-12-07T05:22:57.930Z,34.64
2023-12-07T05:25:46.094Z,34.60
2023-12-07T05:28:33.306Z,34.69
2023-12-07T05:31:22.150Z,34.31
2023-12-07T05:34:09.650Z,34.17
2023-12-07T05:36:56.779Z,34.10
2023-12-07T05:39:43.873Z,34.06
2023-12-07T05:42:31.069Z,34.03
2023-12-07T05:45:18.263Z,33.99
2023-12-07T05:48:05.909Z,34.07
2023-12-07T05:50:53.031Z,33.54
2023-12-07T05:53:40.179Z,33.69
2023-12-07T05:56:27.348Z,33.55
2023-12-07T05:59:14.687Z,33.47
2023-12-07T06:02:03.337Z,33.48
2023-12-07T06:04:51.253Z,33.26
2023-12-07T06:07:38.466Z,33.33
2023-12-07T06:10:26.389Z,33.31
2023-12-07T06:13:15.008Z,33.13
2023-12-07T06:16:04.118Z,33.29
2023-12-07T06:18:51.692Z,33.15
2023-12-07T06:21:38.940Z,33.26
2023-12-07T06:24:26.315Z,33.31
2023-12-07T06:27:13.429Z,33.02
2023-12-07T06:30:00.897Z,33.38
2023-12-07T06:32:48.256Z,33.17
2023-12-07T06:35:35.374Z,32.98
2023-12-07T06:38:23.303Z,33.32
2023-12-07T06:41:11.340Z,33.01
2023-12-07T06:43:59.703Z,33.25
2023-12-07T06:46:47.184Z,33.06
2023-12-07T06:49:42.878Z,32.95
2023-12-07T06:52:38.494Z,32.93
2023-12-07T06:55:25.750Z,32.94
2023-12-07T06:58:13.215Z,32.94
2023-12-07T07:01:00.955Z,33.04
2023-12-07T07:03:48.205Z,32.62
2023-12-07T07:06:36.202Z,32.56
2023-12-07T07:09:23.339Z,32.73
2023-12-07T07:12:10.565Z,32.73
2023-12-07T07:14:57.724Z,32.69
2023-12-07T07:17:44.872Z,32.66
2023-12-07T07:20:32.013Z,32.52
2023-12-07T07:23:19.136Z,32.58
2023-12-07T07:26:06.381Z,32.56
2023-12-07T07:28:53.968Z,32.58
2023-12-07T07:31:41.219Z,32.41
2023-12-07T07:34:28.440Z,32.65
2023-12-07T07:37:15.644Z,32.57
2023-12-07T07:40:07.865Z,32.47
2023-12-07T07:42:55.129Z,32.45
2023-12-07T07:45:42.251Z,32.38
2023-12-07T07:48:29.452Z,32.35
2023-12-07T07:51:16.601Z,32.53
2023-12-07T07:54:03.838Z,32.47
2023-12-07T07:56:51.013Z,32.38
2023-12-07T07:59:38.146Z,32.36
2023-12-07T08:02:25.797Z,32.39
2023-12-07T08:05:13.805Z,32.28
2023-12-07T08:08:00.910Z,32.26
2023-12-07T08:10:54.778Z,32.14
2023-12-07T08:13:43.709Z,31.96
2023-12-07T08:16:30.882Z,32.05
2023-12-07T08:19:18.132Z,31.96
2023-12-07T08:22:05.762Z,31.79
2023-12-07T08:25:01.026Z,31.85
2023-12-07T08:27:55.646Z,31.87
2023-12-07T08:30:42.797Z,30.37
2023-12-07T08:33:30.219Z,30.32
2023-12-07T08:36:17.798Z,31.01
2023-12-07T08:39:05.092Z,30.64
2023-12-07T08:41:52.846Z,30.77
2023-12-07T08:44:40.046Z,31.13
2023-12-07T08:47:29.010Z,31.14
2023-12-07T08:50:16.350Z,31.37
2023-12-07T08:53:05.291Z,31.35
2023-12-07T08:55:54.718Z,31.18
2023-12-07T08:58:42.388Z,31.12
2023-12-07T09:01:33.143Z,31.06
2023-12-07T09:04:20.872Z,31.05
2023-12-07T09:07:08.382Z,31.32
2023-12-07T09:09:55.507Z,31.05
2023-12-07T09:12:42.963Z,31.12
2023-12-07T09:15:30.091Z,31.12
2023-12-07T09:18:17.289Z,31.24
2023-12-07T09:21:05.285Z,31.48
2023-12-07T09:23:53.547Z,31.57
2023-12-07T09:26:41.213Z,31.68
2023-12-07T09:29:28.421Z,31.70
2023-12-07T09:32:17.364Z,32.06
2023-12-07T09:35:08.236Z,31.89
2023-12-07T09:37:55.694Z,31.95
2023-12-07T09:40:42.902Z,32.20
2023-12-07T09:43:30.844Z,32.32
2023-12-07T09:46:20.223Z,32.33
2023-12-07T09:49:07.580Z,32.46
2023-12-07T09:51:59.189Z,32.28
2023-12-07T09:54:47.296Z,32.38
2023-12-07T09:57:35.565Z,32.34
2023-12-07T10:00:23.017Z,32.32
2023-12-07T10:03:25.817Z,32.46
2023-12-07T10:06:12.963Z,32.43
2023-12-07T10:09:05.277Z,32.54
2023-12-07T10:12:06.603Z,32.48
2023-12-07T10:14:53.740Z,32.50
2023-12-07T10:17:50.336Z,32.59
2023-12-07T10:20:46.557Z,32.34
2023-12-07T10:23:34.298Z,32.25
2023-12-07T10:26:22.605Z,32.41
2023-12-07T10:29:20.577Z,32.25
2023-12-07T10:32:14.791Z,32.12
2023-12-07T10:35:02.524Z,32.30
2023-12-07T10:37:49.759Z,32.43
2023-12-07T10:40:37.654Z,32.41
2023-12-07T10:43:25.235Z,32.51
2023-12-07T10:46:20.016Z,32.60
2023-12-07T10:49:21.908Z,32.65
2023-12-07T10:52:25.023Z,32.62
2023-12-07T10:55:21.281Z,32.80
2023-12-07T10:58:11.417Z,32.80
2023-12-07T11:01:01.119Z,32.95
2023-12-07T11:03:53.846Z,32.99
2023-12-07T11:06:43.503Z,32.94
2023-12-07T11:09:39.941Z,33.01
2023-12-07T11:12:47.494Z,32.79
2023-12-07T11:15:35.864Z,32.96
2023-12-07T11:18:23.086Z,32.84
2023-12-07T11:21:11.318Z,32.97
2023-12-07T11:24:05.489Z,32.89
2023-12-07T11:26:56.275Z,33.21
2023-12-07T11:29:43.448Z,32.99
2023-12-07T11:32:31.222Z,32.91
2023-12-07T11:35:18.393Z,32.83
2023-12-07T11:38:12.779Z,32.89
2023-12-07T11:41:01.057Z,32.86
2023-12-07T11:43:48.415Z,32.82
2023-12-07T11:46:36.139Z,32.65
2023-12-07T11:49:29.234Z,32.74
2023-12-07T11:52:23.214Z,32.73
2023-12-07T11:55:13.240Z,32.79
2023-12-07T11:58:00.490Z,32.59
2023-12-07T12:00:48.053Z,32.70
2023-12-07T12:03:35.587Z,32.66
2023-12-07T12:06:25.126Z,32.54
2023-12-07T12:09:23.713Z,32.63
2023-12-07T12:12:17.556Z,32.72
2023-12-07T12:15:05.645Z,32.86
2023-12-07T12:17:53.033Z,33.03
2023-12-07T12:20:41.231Z,32.84
2023-12-07T12:23:30.051Z,33.01
2023-12-07T12:26:19.353Z,32.83
2023-12-07T12:29:17.128Z,33.00
2023-12-07T12:32:09.815Z,32.91
2023-12-07T12:34:57.148Z,32.95
2023-12-07T12:37:49.616Z,32.96
2023-12-07T12:40:36.909Z,33.12
2023-12-07T12:43:24.302Z,33.06
2023-12-07T12:46:13.020Z,33.39
2023-12-07T12:49:02.252Z,33.32
2023-12-07T12:51:50.238Z,33.38
2023-12-07T12:54:37.405Z,33.28
2023-12-07T12:57:25.517Z,33.24
2023-12-07T13:00:14.398Z,33.28
2023-12-07T13:03:04.618Z,33.22
2023-12-07T13:05:51.861Z,33.10
2023-12-07T13:08:39.246Z,33.23
2023-12-07T13:11:26.697Z,33.19
2023-12-07T13:14:15.486Z,33.16
2023-12-07T13:17:05.108Z,33.32
2023-12-07T13:19:52.497Z,33.29
2023-12-07T13:22:39.918Z,33.56
2023-12-07T13:25:27.128Z,33.28
2023-12-07T13:28:14.355Z,33.41
2023-12-07T13:31:01.550Z,33.50
2023-12-07T13:33:55.498Z,33.63
2023-12-07T13:36:44.597Z,33.45
2023-12-07T13:39:32.577Z,33.36
2023-12-07T13:42:20.046Z,33.26
2023-12-07T13:45:09.503Z,33.60
2023-12-07T13:47:56.710Z,33.55
2023-12-07T13:50:44.307Z,33.67
2023-12-07T13:53:31.628Z,33.47
2023-12-07T13:56:18.772Z,33.56
2023-12-07T13:59:08.708Z,33.66
2023-12-07T14:01:56.692Z,33.54
2023-12-07T14:04:44.397Z,33.49
2023-12-07T14:07:32.343Z,33.79
2023-12-07T14:10:19.610Z,33.65
2023-12-07T14:13:09.117Z,33.68
2023-12-07T14:16:03.254Z,33.61
2023-12-07T14:19:05.327Z,33.48
2023-12-07T14:22:02.441Z,33.47
2023-12-07T14:24:49.661Z,33.56
2023-12-07T14:27:36.999Z,33.62
2023-12-07T14:30:24.173Z,33.93
2023-12-07T14:33:11.398Z,33.92
2023-12-07T14:35:58.901Z,33.86
2023-12-07T14:38:46.252Z,33.86
2023-12-07T14:41:33.812Z,33.68
2023-12-07T14:44:28.832Z,33.54
2023-12-07T14:47:16.829Z,33.53
2023-12-07T14:50:05.740Z,33.63
2023-12-07T14:52:53.097Z,33.47
2023-12-07T14:55:40.260Z,33.57
2023-12-07T14:58:27.396Z,33.54
2023-12-07T15:01:15.749Z,33.53
2023-12-07T15:04:02.922Z,33.28
2023-12-07T15:06:50.210Z,33.45
2023-12-07T15:09:38.807Z,33.37
2023-12-07T15:12:29.854Z,33.42
2023-12-07T15:15:17.343Z,33.37
2023-12-07T15:18:04.920Z,33.36
2023-12-07T15:20:52.246Z,33.27
2023-12-07T15:23:39.984Z,33.27
2023-12-07T15:26:27.125Z,33.20
2023-12-07T15:29:14.715Z,33.13
2023-12-07T15:32:01.848Z,33.03
2023-12-07T15:34:49.135Z,32.92
2023-12-07T15:37:36.464Z,32.93
2023-12-07T15:40:23.577Z,33.00
2023-12-07T15:43:10.756Z,33.05
2023-12-07T15:45:58.019Z,33.26
2023-12-07T15:48:45.377Z,33.23
2023-12-07T15:51:32.653Z,33.12
2023-12-07T15:54:30.863Z,33.26
2023-12-07T15:57:24.918Z,33.20
2023-12-07T16:00:13.527Z,33.21
2023-12-07T16:03:01.150Z,33.18
2023-12-07T16:05:48.554Z,33.27
2023-12-07T16:08:35.779Z,33.27
2023-12-07T16:11:22.918Z,33.31
2023-12-07T16:14:14.597Z,33.39
2023-12-07T16:17:05.570Z,33.34
2023-12-07T16:19:52.801Z,33.50
2023-12-07T16:22:39.993Z,33.90
2023-12-07T16:25:27.227Z,33.74
2023-12-07T16:28:14.435Z,34.14
2023-12-07T16:31:01.663Z,34.21
2023-12-07T16:33:49.064Z,33.91
2023-12-07T16:36:36.663Z,34.11
2023-12-07T16:39:23.968Z,34.27
2023-12-07T16:42:12.524Z,34.05
2023-12-07T16:44:59.841Z,34.13
2023-12-07T16:47:49.046Z,34.36
2023-12-07T16:50:36.307Z,34.29
2023-12-07T16:53:23.731Z,34.16
2023-12-07T16:56:11.697Z,34.35
2023-12-07T16:58:58.871Z,34.27
2023-12-07T17:01:46.114Z,34.20
2023-12-07T17:04:33.452Z,34.19
2023-12-07T17:07:20.593Z,34.19
2023-12-07T17:10:08.396Z,34.15
2023-12-07T17:12:55.531Z,34.07
2023-12-07T17:15:44.065Z,34.12
2023-12-07T17:18:33.739Z,34.35
2023-12-07T17:21:21.935Z,34.27
2023-12-07T17:24:09.117Z,34.36
2023-12-07T17:26:56.340Z,34.29
2023-12-07T17:29:43.487Z,34.61
2023-12-07T17:32:30.723Z,34.59
2023-12-07T17:35:17.973Z,34.65
2023-12-07T17:38:05.120Z,34.71
2023-12-07T17:40:52.364Z,34.46
2023-12-07T17:43:39.718Z,34.69
2023-12-07T17:46:26.936Z,34.62
2023-12-07T17:49:15.401Z,34.57
2023-12-07T17:52:02.780Z,34.63
2023-12-07T17:54:50.712Z,34.73
2023-12-07T17:57:37.938Z,34.81
2023-12-07T18:00:25.580Z,34.62
2023-12-07T18:03:12.779Z,34.73
2023-12-07T18:06:00.193Z,34.95
2023-12-07T18:08:47.558Z,34.79
2023-12-07T18:11:34.931Z,34.80
2023-12-07T18:14:22.107Z,34.88
2023-12-07T18:17:09.545Z,35.05
2023-12-07T18:19:56.745Z,34.88
2023-12-07T18:22:43.909Z,35.10
2023-12-07T18:25:31.068Z,35.01
2023-12-07T18:28:19.417Z,35.00
2023-12-07T18:31:06.778Z,34.86
2023-12-07T18:33:57.109Z,34.81
2023-12-07T18:36:44.293Z,34.88
2023-12-07T18:39:31.534Z,34.91
2023-12-07T18:42:18.785Z,34.76
2023-12-07T18:45:07.003Z,34.93
2023-12-07T18:47:54.975Z,35.07
2023-12-07T18:50:42.194Z,34.96
2023-12-07T18:53:30.369Z,34.89
2023-12-07T18:56:17.559Z,35.04
2023-12-07T18:59:05.578Z,34.86
2023-12-07T19:01:52.710Z,34.91
2023-12-07T19:04:43.333Z,34.83
2023-12-07T19:07:30.625Z,34.83
2023-12-07T19:10:17.822Z,34.80
2023-12-07T19:13:08.092Z,34.74
2023-12-07T19:15:55.273Z,34.49
2023-12-07T19:18:43.661Z,34.86
2023-12-07T19:21:30.906Z,34.40
2023-12-07T19:24:18.078Z,34.66
2023-12-07T19:27:05.665Z,34.34
2023-12-07T19:29:54.293Z,34.47
2023-12-07T19:32:42.026Z,34.27
2023-12-07T19:35:30.360Z,34.40
2023-12-07T19:38:18.716Z,34.21
2023-12-07T19:41:06.524Z,34.22
2023-12-07T19:43:53.645Z,34.12
2023-12-07T19:46:41.517Z,34.06
2023-12-07T19:49:28.843Z,34.37
2023-12-07T19:52:16.592Z,34.15
2023-12-07T19:55:07.571Z,34.38
2023-12-07T19:57:54.720Z,34.41
2023-12-07T20:00:42.234Z,34.40
2023-12-07T20:03:29.393Z,34.42
2023-12-07T20:06:20.503Z,34.38
2023-12-07T20:09:15.524Z,34.66
2023-12-07T20:12:02.901Z,34.37
2023-12-07T20:14:50.108Z,34.39
2023-12-07T20:17:37.811Z,34.35
2023-12-07T20:20:25.015Z,34.46
2023-12-07T20:23:12.456Z,34.28
2023-12-07T20:25:59.718Z,34.61
2023-12-07T20:28:49.866Z,34.42
2023-12-07T20:31:37.013Z,34.30
2023-12-07T20:34:24.252Z,34.16
2023-12-07T20:37:12.085Z,34.19
2023-12-07T20:39:59.357Z,34.12
2023-12-07T20:42:46.905Z,34.12
2023-12-07T20:45:34.076Z,34.06
2023-12-07T20:48:21.355Z,33.93
2023-12-07T20:51:08.586Z,33.81
2023-12-07T20:53:55.858Z,33.69
2023-12-07T20:56:44.135Z,33.66
2023-12-07T20:59:32.031Z,33.76
2023-12-07T21:02:19.243Z,33.98
2023-12-07T21:05:07.234Z,33.90
2023-12-07T21:07:55.092Z,33.96
2023-12-07T21:10:42.297Z,33.74
2023-12-07T21:13:29.470Z,34.08
2023-12-07T21:16:16.637Z,33.87
2023-12-07T21:19:04.059Z,34.02
2023-12-07T21:21:51.322Z,33.99
2023-12-07T21:24:38.569Z,34.12
2023-12-07T21:27:26.018Z,34.09
2023-12-07T21:30:13.629Z,33.81
2023-12-07T21:33:02.496Z,33.90
2023-12-07T21:35:49.813Z,33.88
2023-12-07T21:38:37.029Z,33.90
2023-12-07T21:41:24.180Z,33.70
2023-12-07T21:44:11.750Z,33.86
2023-12-07T21:46:59.021Z,34.00
2023-12-07T21:49:46.238Z,33.67
2023-12-07T21:52:33.487Z,33.89
2023-12-07T21:55:20.601Z,33.56
2023-12-07T21:58:07.737Z,33.82
2023-12-07T22:00:55.275Z,33.69
2023-12-07T22:03:42.560Z,33.92
2023-12-07T22:06:29.928Z,33.95
2023-12-07T22:09:17.036Z,33.77
2023-12-07T22:12:05.763Z,33.97
2023-12-07T22:14:52.978Z,34.05
2023-12-07T22:17:41.372Z,34.19
2023-12-07T22:20:28.820Z,34.06
2023-12-07T22:23:16.070Z,34.17
2023-12-07T22:26:03.184Z,34.34
2023-12-07T22:28:50.425Z,34.13
2023-12-07T22:31:37.543Z,34.21
2023-12-07T22:34:24.925Z,34.02
2023-12-07T22:37:12.151Z,33.82
2023-12-07T22:39:59.313Z,33.82
2023-12-07T22:42:46.475Z,34.14
2023-12-07T22:45:33.614Z,33.90
2023-12-07T22:48:20.886Z,33.81
2023-12-07T22:51:08.207Z,34.03
2023-12-07T22:53:55.369Z,33.99
2023-12-07T22:56:42.661Z,33.98
2023-12-07T22:59:33.447Z,33.96
2023-12-07T23:02:20.619Z,34.02
2023-12-07T23:05:08.603Z,33.95
2023-12-07T23:07:55.805Z,33.88
2023-12-07T23:10:43.022Z,34.15
2023-12-07T23:13:30.226Z,33.84
2023-12-07T23:16:17.641Z,34.19
2023-12-07T23:19:05.301Z,33.98
2023-12-07T23:21:52.600Z,34.16
2023-12-07T23:24:39.748Z,34.02
2023-12-07T23:27:27.074Z,34.10
2023-12-07T23:30:15.218Z,34.05
2023-12-07T23:33:02.497Z,33.92
2023-12-07T23:35:49.750Z,34.16
2023-12-07T23:38:37.014Z,34.38
2023-12-07T23:41:24.504Z,34.30
2023-12-07T23:44:11.640Z,34.38
2023-12-07T23:46:58.811Z,34.28
2023-12-07T23:49:46.368Z,34.46
2023-12-07T23:52:33.521Z,34.10
2023-12-07T23:55:20.638Z,34.54
2023-12-07T23:58:07.799Z,34.56
